Time;durP1;ratioP1;P1;durP2;ratioP2;P2;SDS_P1;SDS_P2;PMS_P1;PMS_P2;Temp;Humidity;BMP_temperature;BMP_pressure;BME280_temperature;BME280_humidity;BME280_pressure;Samples;Min_cycle;Max_cycle;Signal;HPM_P1;HPM_P2
2024/03/16 00:02:14;;;;;;;2.10;0.80;;;;;;;9.82;100.00;100762.09;5023349;28;20042;-75
2024/03/16 00:04:42;;;;;;;3.55;0.70;;;;;;;9.83;100.00;100759.34;5024890;28;20025;-76
2024/03/16 00:07:08;;;;;;;3.97;1.45;;;;;;;9.87;100.00;100757.25;5037739;28;20107;-76
2024/03/16 00:09:34;;;;;;;6.88;1.13;;;;;;;9.75;100.00;100757.50;5027165;28;20033;-77
2024/03/16 00:11:59;;;;;;;6.15;1.08;;;;;;;9.69;100.00;100759.88;5024949;28;20037;-76
2024/03/16 00:14:24;;;;;;;5.60;1.10;;;;;;;9.67;100.00;100757.44;5022233;28;20053;-76
2024/03/16 00:16:50;;;;;;;3.90;1.10;;;;;;;9.77;100.00;100759.13;5025840;28;20091;-75
2024/03/16 00:19:17;;;;;;;5.18;1.13;;;;;;;9.85;100.00;100761.75;5026032;28;20045;-75
2024/03/16 00:21:43;;;;;;;8.30;1.30;;;;;;;9.78;100.00;100766.75;5027436;28;20029;-76
2024/03/16 00:24:08;;;;;;;6.03;1.00;;;;;;;9.74;100.00;100762.84;5012570;28;20083;-76
2024/03/16 00:26:34;;;;;;;5.28;1.00;;;;;;;9.77;100.00;100751.38;5025509;28;20041;-76
2024/03/16 00:29:00;;;;;;;9.80;1.27;;;;;;;9.81;100.00;100763.84;5028710;28;20480;-76
2024/03/16 00:31:26;;;;;;;9.73;1.38;;;;;;;9.86;100.00;100753.84;5027378;28;21251;-77
2024/03/16 00:33:51;;;;;;;11.60;1.48;;;;;;;10.03;100.00;100756.56;5025650;28;20087;-75
2024/03/16 00:36:17;;;;;;;11.05;1.65;;;;;;;9.97;100.00;100762.34;5022892;28;20047;-76
2024/03/16 00:38:49;;;;;;;11.00;1.60;;;;;;;9.87;100.00;100755.50;5021545;28;20030;-76
2024/03/16 00:41:16;;;;;;;8.05;0.75;;;;;;;9.92;100.00;100760.19;5025951;28;20056;-77
2024/03/16 00:43:43;;;;;;;8.50;1.25;;;;;;;9.87;100.00;100763.25;5025774;28;20037;-76
2024/03/16 00:46:08;;;;;;;7.50;1.08;;;;;;;9.81;100.00;100758.66;5023118;28;20057;-76
2024/03/16 00:48:33;;;;;;;8.05;1.45;;;;;;;9.78;100.00;100768.53;5021719;28;20055;-75
2024/03/16 00:50:59;;;;;;;8.95;1.00;;;;;;;9.87;100.00;100763.25;5023707;28;20068;-75
2024/03/16 00:53:24;;;;;;;5.55;1.20;;;;;;;9.87;100.00;100778.81;5027028;28;20037;-76
2024/03/16 00:55:50;;;;;;;10.68;1.38;;;;;;;9.83;100.00;100768.88;5025321;28;20567;-76
2024/03/16 00:58:15;;;;;;;6.40;1.15;;;;;;;9.84;100.00;100775.69;5012722;28;20960;-77
2024/03/16 01:00:41;;;;;;;7.22;1.23;;;;;;;9.86;100.00;100777.16;5026005;28;20511;-76
2024/03/16 01:03:06;;;;;;;4.20;1.00;;;;;;;9.78;100.00;100774.53;5053158;28;20681;-75
2024/03/16 01:05:32;;;;;;;9.55;1.15;;;;;;;9.82;100.00;100775.03;5026727;28;20432;-77
2024/03/16 01:07:57;;;;;;;5.82;1.13;;;;;;;9.86;100.00;100777.16;5025821;28;20111;-75
2024/03/16 01:10:23;;;;;;;6.35;1.42;;;;;;;9.79;100.00;100778.72;5022787;28;20037;-75
2024/03/16 01:12:48;;;;;;;6.20;1.10;;;;;;;9.77;100.00;100772.09;5022530;28;20069;-75
2024/03/16 01:15:14;;;;;;;6.40;0.98;;;;;;;9.66;100.00;100773.97;5025061;28;20029;-76
2024/03/16 01:17:39;;;;;;;5.90;1.45;;;;;;;9.78;100.00;100779.69;5053103;28;20033;-76
2024/03/16 01:20:07;;;;;;;5.80;1.65;;;;;;;9.66;100.00;100781.72;5025737;28;20037;-75
2024/03/16 01:22:32;;;;;;;6.38;1.20;;;;;;;9.63;100.00;100787.19;5023895;28;20524;-76
2024/03/16 01:24:58;;;;;;;8.93;1.25;;;;;;;9.77;100.00;100782.44;5023836;28;20042;-76
2024/03/16 01:27:23;;;;;;;6.38;1.20;;;;;;;9.88;100.00;100774.44;5023581;28;20063;-76
2024/03/16 01:29:49;;;;;;;12.82;1.67;;;;;;;9.85;100.00;100774.72;5025455;28;20033;-76
2024/03/16 01:32:14;;;;;;;4.53;1.00;;;;;;;9.78;100.00;100774.53;5022479;28;20485;-77
2024/03/16 01:34:39;;;;;;;3.90;0.90;;;;;;;9.77;100.00;100779.84;5026015;28;20389;-76
2024/03/16 01:37:05;;;;;;;4.47;1.00;;;;;;;9.81;100.00;100786.34;5025871;28;20030;-76
2024/03/16 01:39:30;;;;;;;8.07;1.00;;;;;;;9.77;100.00;100785.84;5052372;28;20029;-75
2024/03/16 01:41:56;;;;;;;10.13;1.80;;;;;;;9.75;100.00;100785.19;5024643;28;20531;-76
2024/03/16 01:44:21;;;;;;;6.25;0.93;;;;;;;9.66;100.00;100789.50;5018218;28;20680;-75
2024/03/16 01:46:47;;;;;;;6.13;1.00;;;;;;;9.64;100.00;100793.97;5022814;28;20059;-76
2024/03/16 01:49:12;;;;;;;7.00;1.00;;;;;;;9.65;100.00;100795.63;5020651;28;20107;-77
2024/03/16 01:51:39;;;;;;;5.63;1.00;;;;;;;9.72;100.00;100798.44;5024993;28;20168;-75
2024/03/16 01:54:05;;;;;;;6.75;1.42;;;;;;;9.71;100.00;100789.84;5019814;28;20044;-75
2024/03/16 01:56:32;;;;;;;4.88;0.95;;;;;;;9.61;100.00;100778.78;5026421;28;20040;-76
2024/03/16 01:58:57;;;;;;;9.23;1.25;;;;;;;9.55;100.00;100775.00;5056712;28;20035;-75
2024/03/16 02:01:23;;;;;;;7.78;1.55;;;;;;;9.50;100.00;100781.59;5024774;28;20026;-77
2024/03/16 02:03:49;;;;;;;8.77;1.85;;;;;;;9.55;100.00;100775.00;5025475;28;20034;-75
2024/03/16 02:06:15;;;;;;;13.48;2.13;;;;;;;9.65;100.00;100774.09;5029032;28;20507;-75
2024/03/16 02:08:40;;;;;;;12.73;1.38;;;;;;;9.53;100.00;100776.94;5024676;28;20065;-76
2024/03/16 02:11:06;;;;;;;5.82;1.40;;;;;;;9.50;100.00;100781.59;5055703;28;20048;-76
2024/03/16 02:13:31;;;;;;;8.05;1.40;;;;;;;9.53;100.00;100789.88;5023111;28;20045;-76
2024/03/16 02:15:56;;;;;;;7.25;1.52;;;;;;;9.44;100.00;100783.00;5029979;28;20029;-75
2024/03/16 02:18:22;;;;;;;10.07;1.60;;;;;;;9.52;100.00;100790.81;5017021;28;20591;-76
2024/03/16 02:20:47;;;;;;;9.18;1.80;;;;;;;9.54;100.00;100799.25;5032097;28;20828;-75
2024/03/16 02:23:15;;;;;;;6.97;1.48;;;;;;;9.51;100.00;100802.16;5011508;28;20069;-76
2024/03/16 02:25:42;;;;;;;12.68;1.67;;;;;;;9.45;100.00;100800.13;5018239;28;20071;-76
2024/03/16 02:28:08;;;;;;;7.75;1.73;;;;;;;9.48;100.00;100809.41;5025223;28;20037;-76
2024/03/16 02:30:34;;;;;;;7.00;1.67;;;;;;;9.43;100.00;100817.59;5036581;28;20419;-76
2024/03/16 02:32:59;;;;;;;6.45;1.73;;;;;;;9.48;100.00;100819.75;5023669;28;20622;-76
2024/03/16 02:35:25;;;;;;;10.77;1.90;;;;;;;9.37;100.00;100818.19;5024125;28;20403;-76
2024/03/16 02:37:50;;;;;;;12.55;1.92;;;;;;;9.31;100.00;100822.19;5023252;28;20033;-76
2024/03/16 02:40:17;;;;;;;8.93;1.80;;;;;;;9.37;100.00;100813.00;5026381;28;20456;-77
2024/03/16 02:42:43;;;;;;;6.10;2.00;;;;;;;9.50;100.00;100825.59;5023718;28;20030;-75
2024/03/16 02:45:09;;;;;;;10.60;2.10;;;;;;;9.42;100.00;100828.09;5025892;28;20094;-76
2024/03/16 02:47:35;;;;;;;14.20;2.35;;;;;;;9.54;100.00;100825.13;5022562;28;20045;-76
2024/03/16 02:50:03;;;;;;;11.32;2.55;;;;;;;9.42;100.00;100821.16;5022155;28;20044;-76
2024/03/16 02:52:31;;;;;;;10.45;2.08;;;;;;;9.36;100.00;100826.91;5019971;28;20030;-75
2024/03/16 02:54:57;;;;;;;6.13;2.00;;;;;;;9.40;100.00;100827.44;5055022;28;20043;-76
2024/03/16 02:57:24;;;;;;;8.00;2.50;;;;;;;9.35;100.00;100825.28;5026490;28;20037;-75
2024/03/16 02:59:49;;;;;;;8.98;2.20;;;;;;;9.27;100.00;100823.44;5029239;28;20507;-76
2024/03/16 03:02:16;;;;;;;8.38;2.17;;;;;;;9.25;100.00;100821.94;5028174;28;20049;-77
2024/03/16 03:04:41;;;;;;;5.55;1.80;;;;;;;9.26;100.00;100826.16;5030014;28;20598;-76
2024/03/16 03:07:07;;;;;;;14.38;2.17;;;;;;;9.23;100.00;100832.47;5027131;28;20041;-76
2024/03/16 03:09:33;;;;;;;13.57;2.10;;;;;;;9.28;100.00;100838.00;5057737;28;20033;-75
2024/03/16 03:11:58;;;;;;;16.85;2.10;;;;;;;9.37;100.00;100831.13;5028386;28;20064;-76
2024/03/16 03:14:24;;;;;;;7.95;2.22;;;;;;;9.35;100.00;100833.06;5013262;28;20033;-76
2024/03/16 03:16:49;;;;;;;12.00;2.50;;;;;;;9.27;100.00;100846.72;5025419;28;20037;-76
2024/03/16 03:19:16;;;;;;;15.18;2.22;;;;;;;9.44;100.00;100847.72;5027105;28;20488;-76
2024/03/16 03:21:41;;;;;;;10.35;2.63;;;;;;;9.31;100.00;100849.84;5039899;28;20025;-76
2024/03/16 03:24:07;;;;;;;10.02;2.10;;;;;;;9.31;100.00;100847.25;5029440;28;20034;-76
2024/03/16 03:26:33;;;;;;;11.48;2.90;;;;;;;9.32;100.00;100844.53;5028741;28;20034;-76
2024/03/16 03:28:59;;;;;;;12.23;2.72;;;;;;;9.39;100.00;100847.31;5027517;28;20040;-75
2024/03/16 03:31:25;;;;;;;14.77;3.55;;;;;;;9.40;100.00;100848.97;5028570;28;20041;-76
2024/03/16 03:33:50;;;;;;;12.55;3.00;;;;;;;9.38;100.00;100857.81;5026659;28;20063;-76
2024/03/16 03:36:16;;;;;;;8.02;3.13;;;;;;;9.43;100.00;100853.84;5023410;28;20085;-75
2024/03/16 03:38:43;;;;;;;5.20;2.45;;;;;;;9.31;100.00;100860.19;5008442;28;21191;-77
2024/03/16 03:41:08;;;;;;;9.52;2.75;;;;;;;9.45;100.00;100862.25;5023162;28;20039;-76
2024/03/16 03:43:36;;;;;;;11.93;2.88;;;;;;;9.43;100.00;100866.78;5011126;28;20034;-77
2024/03/16 03:46:04;;;;;;;7.30;3.30;;;;;;;9.47;100.00;100868.09;5026894;28;20043;-77
2024/03/16 03:48:36;;;;;;;9.40;3.13;;;;;;;9.31;100.00;100862.78;5027435;28;20543;-77
2024/03/16 03:51:05;;;;;;;13.23;3.38;;;;;;;9.42;100.00;100870.34;5028298;28;20152;-77
2024/03/16 03:53:31;;;;;;;10.93;3.38;;;;;;;9.34;100.00;100865.91;5039442;28;20053;-76
2024/03/16 03:55:56;;;;;;;11.52;3.20;;;;;;;9.31;100.00;100861.00;5025959;28;20065;-76
2024/03/16 03:58:22;;;;;;;9.80;3.10;;;;;;;9.38;100.00;100878.53;5009611;28;20033;-77
2024/03/16 04:00:48;;;;;;;7.78;3.10;;;;;;;9.44;100.00;100873.59;5028868;28;20129;-76
2024/03/16 04:03:14;;;;;;;11.88;3.63;;;;;;;9.41;100.00;100871.28;5021464;28;20628;-76
2024/03/16 04:05:40;;;;;;;12.35;3.55;;;;;;;9.31;100.00;100870.53;5025991;28;20045;-76
2024/03/16 04:08:06;;;;;;;12.85;3.58;;;;;;;9.35;100.00;100872.69;5024113;28;20041;-76
2024/03/16 04:10:32;;;;;;;10.98;3.20;;;;;;;9.39;100.00;100877.56;5026780;28;20029;-77
2024/03/16 04:12:59;;;;;;;13.15;4.45;;;;;;;9.38;100.00;100881.09;5026559;28;20039;-76
2024/03/16 04:15:25;;;;;;;13.38;4.60;;;;;;;9.50;100.00;100891.13;5026465;28;20037;-76
2024/03/16 04:17:50;;;;;;;13.55;4.68;;;;;;;9.46;100.00;100904.50;5026045;28;20030;-76
2024/03/16 04:20:20;;;;;;;13.93;4.28;;;;;;;9.53;100.00;100893.41;5027850;28;20559;-76
2024/03/16 04:22:46;;;;;;;25.83;6.82;;;;;;;9.42;100.00;100900.56;5048208;28;20038;-76
2024/03/16 04:25:12;;;;;;;13.95;5.18;;;;;;;9.51;100.00;100907.44;5001178;28;20026;-77
2024/03/16 04:27:39;;;;;;;14.77;5.40;;;;;;;9.53;100.00;100905.53;5021958;28;20389;-76
2024/03/16 04:30:08;;;;;;;16.05;5.50;;;;;;;9.58;100.00;100915.47;5022556;28;20029;-76
2024/03/16 04:32:35;;;;;;;11.10;4.95;;;;;;;9.55;100.00;100904.44;5024742;28;20262;-76
2024/03/16 04:35:02;;;;;;;15.85;5.40;;;;;;;9.58;100.00;100913.69;5026722;28;20036;-76
2024/03/16 04:37:28;;;;;;;18.02;5.53;;;;;;;9.56;100.00;100913.00;5025614;28;20036;-76
2024/03/16 04:39:55;;;;;;;14.48;5.97;;;;;;;9.52;100.00;100909.09;5027326;28;20030;-76
2024/03/16 04:42:21;;;;;;;12.32;5.70;;;;;;;9.53;100.00;100918.47;5026444;28;20523;-76
2024/03/16 04:44:46;;;;;;;11.25;5.65;;;;;;;9.49;100.00;100914.56;5009286;28;20025;-76
2024/03/16 04:47:12;;;;;;;15.80;5.85;;;;;;;9.62;100.00;100919.38;5026227;28;20385;-76
2024/03/16 04:49:37;;;;;;;16.60;6.38;;;;;;;9.58;100.00;100924.03;5024023;28;20042;-77
2024/03/16 04:52:03;;;;;;;13.98;6.38;;;;;;;9.48;100.00;100918.13;5027803;28;20037;-76
2024/03/16 04:54:28;;;;;;;13.98;6.18;;;;;;;9.64;100.00;100914.88;5024841;28;20529;-76
2024/03/16 04:56:54;;;;;;;17.92;6.20;;;;;;;9.60;100.00;100919.53;5027266;28;20029;-77
2024/03/16 04:59:19;;;;;;;12.57;5.75;;;;;;;9.57;100.00;100913.81;5058525;28;20443;-77
2024/03/16 05:01:45;;;;;;;16.67;6.75;;;;;;;9.50;100.00;100921.38;5010578;28;20045;-76
2024/03/16 05:04:11;;;;;;;15.40;6.93;;;;;;;9.61;100.00;100930.72;5025374;28;20045;-77
2024/03/16 05:06:38;;;;;;;16.70;8.02;;;;;;;9.54;100.00;100928.69;5026902;28;20634;-76
2024/03/16 05:09:05;;;;;;;21.63;7.80;;;;;;;9.67;100.00;100932.72;5024238;28;20496;-76
2024/03/16 05:11:36;;;;;;;11.88;6.85;;;;;;;9.63;100.00;100941.72;5025757;28;20037;-77
2024/03/16 05:14:02;;;;;;;18.83;8.05;;;;;;;9.74;100.00;100950.09;5023777;28;20041;-76
2024/03/16 05:16:28;;;;;;;19.70;8.23;;;;;;;9.65;100.00;100945.00;5027547;28;20116;-76
2024/03/16 05:18:53;;;;;;;20.58;8.93;;;;;;;9.59;100.00;100942.97;5021702;28;20121;-76
2024/03/16 05:21:19;;;;;;;15.35;8.90;;;;;;;9.60;100.00;100962.72;5024275;28;20053;-77
2024/03/16 05:23:45;;;;;;;19.88;9.88;;;;;;;9.54;100.00;100974.47;5023974;28;20048;-77
2024/03/16 05:26:14;;;;;;;18.83;9.27;;;;;;;9.59;100.00;100992.16;5020649;28;20040;-78
2024/03/16 05:28:39;;;;;;;18.63;8.18;;;;;;;9.54;100.00;100997.78;5025996;28;20033;-77
2024/03/16 05:31:05;;;;;;;21.77;7.40;;;;;;;9.47;100.00;101004.47;5024736;28;20029;-79
2024/03/16 05:33:31;;;;;;;21.25;5.95;;;;;;;9.20;100.00;101015.63;5021929;28;20042;-78
2024/03/16 05:35:57;;;;;;;16.85;6.68;;;;;;;9.18;100.00;101020.94;5027916;28;20480;-81
2024/03/16 05:38:23;;;;;;;15.93;5.95;;;;;;;9.03;100.00;101023.16;5027688;28;20044;-78
2024/03/16 05:40:49;;;;;;;19.83;6.10;;;;;;;8.93;100.00;101032.72;5017046;28;20021;-79
2024/03/16 05:43:14;;;;;;;10.80;6.43;;;;;;;8.92;100.00;101041.44;5029395;28;20072;-77
2024/03/16 05:45:40;;;;;;;15.98;6.88;;;;;;;8.91;100.00;101045.81;5031851;28;20033;-77
2024/03/16 05:48:05;;;;;;;19.65;7.30;;;;;;;8.77;100.00;101049.59;5016281;28;20038;-78
2024/03/16 05:50:31;;;;;;;17.10;7.50;;;;;;;8.80;100.00;101064.06;5029839;28;20034;-78
2024/03/16 05:52:56;;;;;;;16.30;6.15;;;;;;;8.73;100.00;101068.94;5030846;28;20037;-77
2024/03/16 05:55:22;;;;;;;21.40;6.50;;;;;;;8.70;100.00;101068.41;5015420;28;20030;-77
2024/03/16 05:57:47;;;;;;;14.25;4.95;;;;;;;8.63;100.00;101086.25;5047358;28;20056;-80
2024/03/16 06:00:13;;;;;;;9.98;4.15;;;;;;;8.62;100.00;101081.19;5030123;28;20032;-76
2024/03/16 06:02:42;;;;;;;10.15;4.43;;;;;;;8.55;100.00;101092.09;5028121;28;20561;-76
2024/03/16 06:05:07;;;;;;;11.38;4.60;;;;;;;8.58;100.00;101106.50;5010784;28;20037;-77
2024/03/16 06:07:33;;;;;;;10.48;5.30;;;;;;;8.61;100.00;101116.59;5030593;28;20040;-77
2024/03/16 06:09:59;;;;;;;13.15;4.53;;;;;;;8.43;100.00;101123.34;5013758;28;20118;-77
2024/03/16 06:12:27;;;;;;;10.77;4.15;;;;;;;8.46;100.00;101128.28;5012544;28;20042;-76
2024/03/16 06:14:53;;;;;;;9.35;4.25;;;;;;;8.51;100.00;101139.00;5028459;28;20036;-77
2024/03/16 06:17:19;;;;;;;7.28;4.00;;;;;;;8.37;100.00;101141.00;5042220;28;20132;-78
2024/03/16 06:19:44;;;;;;;12.32;4.80;;;;;;;8.45;100.00;101142.13;5043184;28;20108;-78
2024/03/16 06:22:10;;;;;;;9.40;4.50;;;;;;;8.47;100.00;101156.53;5028093;28;20385;-76
2024/03/16 06:24:35;;;;;;;13.80;5.40;;;;;;;8.41;100.00;101159.63;5025919;28;20026;-76
2024/03/16 06:27:05;;;;;;;10.98;4.72;;;;;;;8.40;100.00;101163.19;5027372;28;20045;-76
2024/03/16 06:29:34;;;;;;;11.60;4.68;;;;;;;8.43;100.00;101170.69;5027500;28;20033;-76
2024/03/16 06:32:06;;;;;;;14.50;5.32;;;;;;;8.54;100.00;101182.69;5029381;28;21024;-77
2024/03/16 06:34:33;;;;;;;12.60;6.22;;;;;;;8.41;100.00;101185.47;5023679;28;20036;-75
2024/03/16 06:36:59;;;;;;;11.80;5.22;;;;;;;8.44;100.00;101193.00;5027757;28;20033;-76
2024/03/16 06:39:24;;;;;;;11.02;6.82;;;;;;;8.42;100.00;101194.06;5013300;28;20033;-76
2024/03/16 06:41:49;;;;;;;10.95;5.80;;;;;;;8.50;100.00;101202.81;5025983;28;20369;-77
2024/03/16 06:44:15;;;;;;;10.70;6.20;;;;;;;8.54;100.00;101204.19;5029225;28;20037;-76
2024/03/16 06:46:41;;;;;;;16.13;6.55;;;;;;;8.46;100.00;101218.72;5024153;28;20030;-76
2024/03/16 06:49:07;;;;;;;14.60;6.60;;;;;;;8.38;100.00;101217.59;5011788;28;20531;-77
2024/03/16 06:51:32;;;;;;;10.25;6.55;;;;;;;8.33;100.00;101230.06;5029271;28;20025;-78
2024/03/16 06:53:58;;;;;;;11.45;6.57;;;;;;;8.38;100.00;101237.41;5027732;28;20036;-76
2024/03/16 06:56:23;;;;;;;12.63;5.88;;;;;;;8.41;100.00;101242.34;5028135;28;20037;-78
2024/03/16 06:58:49;;;;;;;7.53;4.95;;;;;;;8.42;100.00;101249.19;5027076;28;20037;-76
2024/03/16 07:01:14;;;;;;;12.10;5.18;;;;;;;8.39;100.00;101262.31;5028371;28;20116;-75
2024/03/16 07:03:40;;;;;;;12.02;4.93;;;;;;;8.39;100.00;101257.97;5045034;28;20540;-78
2024/03/16 07:06:09;;;;;;;8.63;4.85;;;;;;;8.45;100.00;101264.41;5026938;28;20108;-77
2024/03/16 07:08:36;;;;;;;12.50;5.50;;;;;;;8.51;100.00;101279.41;5057010;28;20512;-77
2024/03/16 07:11:01;;;;;;;9.15;4.80;;;;;;;8.51;100.00;101287.16;5030421;28;20132;-76
2024/03/16 07:13:27;;;;;;;9.25;5.22;;;;;;;8.46;100.00;101283.34;5029491;28;20136;-76
2024/03/16 07:15:53;;;;;;;14.70;6.40;;;;;;;8.50;100.00;101284.72;5029571;28;20025;-78
2024/03/16 07:18:19;;;;;;;12.75;6.82;;;;;;;8.36;100.00;101286.66;5026292;28;20091;-77
2024/03/16 07:20:46;;;;;;;17.00;6.53;;;;;;;8.43;100.00;101294.75;5027963;28;20033;-76
2024/03/16 07:23:11;;;;;;;12.80;7.30;;;;;;;8.40;100.00;101297.56;5025245;28;20038;-76
2024/03/16 07:25:37;;;;;;;14.23;7.38;;;;;;;8.38;100.00;101308.03;5029176;28;20034;-76
2024/03/16 07:28:04;;;;;;;16.20;8.15;;;;;;;8.47;100.00;101315.97;5026789;28;20033;-76
2024/03/16 07:30:29;;;;;;;10.20;5.93;;;;;;;8.38;100.00;101317.53;5060488;28;20056;-77
2024/03/16 07:32:56;;;;;;;18.40;5.85;;;;;;;8.22;100.00;101330.91;5023447;28;20041;-76
2024/03/16 07:35:21;;;;;;;10.35;5.38;;;;;;;8.25;100.00;101338.44;5028965;28;20033;-76
2024/03/16 07:37:47;;;;;;;12.55;6.20;;;;;;;8.38;100.00;101327.84;5008577;28;20048;-76
2024/03/16 07:40:15;;;;;;;11.35;6.28;;;;;;;8.54;100.00;101340.38;5028996;28;20037;-76
2024/03/16 07:42:44;;;;;;;10.93;5.75;;;;;;;8.65;100.00;101347.22;5028164;28;20412;-75
2024/03/16 07:45:09;;;;;;;10.27;4.85;;;;;;;8.69;100.00;101354.56;5026299;28;20097;-75
2024/03/16 07:47:35;;;;;;;25.63;10.90;;;;;;;9.48;100.00;101353.00;5024225;28;20397;-76
2024/03/16 07:50:00;;;;;;;10.82;4.55;;;;;;;9.53;100.00;101367.19;5027262;28;20095;-75
2024/03/16 07:52:27;;;;;;;9.60;3.88;;;;;;;9.37;100.00;101372.06;5027168;28;20482;-76
2024/03/16 07:54:52;;;;;;;10.43;3.83;;;;;;;9.22;100.00;101376.78;5025494;28;20056;-75
2024/03/16 07:57:18;;;;;;;11.07;3.50;;;;;;;10.14;100.00;101376.41;5027451;28;20504;-75
2024/03/16 07:59:44;;;;;;;7.65;2.92;;;;;;;11.16;100.00;101372.25;5027150;28;20037;-75
2024/03/16 08:02:10;;;;;;;6.75;2.78;;;;;;;11.27;99.00;101377.22;5024731;28;20044;-74
2024/03/16 08:04:36;;;;;;;8.27;2.47;;;;;;;11.37;98.73;101371.16;5027116;28;20017;-75
2024/03/16 08:07:02;;;;;;;6.05;2.20;;;;;;;10.96;98.39;101384.50;5021679;28;20523;-76
2024/03/16 08:09:28;;;;;;;6.10;1.92;;;;;;;10.42;99.65;101389.50;5024461;28;20033;-75
2024/03/16 08:11:54;;;;;;;6.70;2.00;;;;;;;10.11;100.00;101401.78;5026906;28;20029;-76
2024/03/16 08:14:20;;;;;;;8.68;1.88;;;;;;;9.85;100.00;101404.09;5025083;28;20033;-76
2024/03/16 08:16:46;;;;;;;7.72;2.25;;;;;;;9.49;100.00;101412.41;5026752;28;20026;-75
2024/03/16 08:19:14;;;;;;;13.02;2.05;;;;;;;9.44;100.00;101409.41;5011483;28;20072;-75
2024/03/16 08:21:40;;;;;;;6.63;2.10;;;;;;;9.30;100.00;101417.53;5024834;28;20033;-76
2024/03/16 08:24:06;;;;;;;11.48;3.03;;;;;;;9.28;100.00;101422.03;5023908;28;20040;-76
2024/03/16 08:26:31;;;;;;;5.22;2.20;;;;;;;9.17;100.00;101425.53;5026460;28;20408;-74
2024/03/16 08:28:57;;;;;;;6.65;2.22;;;;;;;9.22;100.00;101430.31;5027695;28;20124;-76
2024/03/16 08:31:22;;;;;;;7.53;2.22;;;;;;;9.13;100.00;101434.50;5022121;28;20549;-75
2024/03/16 08:33:48;;;;;;;8.07;2.53;;;;;;;9.04;100.00;101438.72;5024598;28;20042;-75
2024/03/16 08:36:14;;;;;;;7.80;2.40;;;;;;;9.05;100.00;101442.91;5024253;28;20044;-75
2024/03/16 08:38:40;;;;;;;7.55;2.00;;;;;;;9.13;100.00;101445.66;5035751;28;20034;-75
2024/03/16 08:41:06;;;;;;;7.22;2.05;;;;;;;9.01;100.00;101462.25;5026280;28;20385;-76
2024/03/16 08:43:31;;;;;;;4.65;1.75;;;;;;;8.91;100.00;101467.38;5023570;28;20689;-75
2024/03/16 08:46:00;;;;;;;5.82;1.65;;;;;;;8.90;100.00;101473.47;5024561;28;20037;-76
2024/03/16 08:48:26;;;;;;;6.53;1.95;;;;;;;9.02;100.00;101481.16;5025727;28;20060;-75
2024/03/16 08:50:51;;;;;;;4.25;1.50;;;;;;;8.93;100.00;101487.94;5027785;28;20431;-76
2024/03/16 08:53:17;;;;;;;6.00;1.73;;;;;;;9.00;100.00;101494.22;5012652;28;20045;-75
2024/03/16 08:55:42;;;;;;;4.15;1.38;;;;;;;9.00;100.00;101496.00;5023721;28;20052;-77
2024/03/16 08:58:08;;;;;;;7.15;1.52;;;;;;;8.88;100.00;101506.41;5027619;28;20044;-76
2024/03/16 09:00:33;;;;;;;4.25;1.45;;;;;;;8.75;100.00;101500.63;5014395;28;20041;-76
2024/03/16 09:03:00;;;;;;;5.82;1.52;;;;;;;8.65;100.00;101515.28;5023530;28;20087;-76
2024/03/16 09:05:26;;;;;;;7.32;1.40;;;;;;;8.67;100.00;101516.78;5026539;28;20034;-74
2024/03/16 09:07:51;;;;;;;2.60;1.15;;;;;;;8.56;100.00;101522.81;5025262;28;20073;-75
2024/03/16 09:10:17;;;;;;;9.27;1.13;;;;;;;8.51;100.00;101531.88;5010445;28;20029;-75
2024/03/16 09:12:43;;;;;;;2.47;1.10;;;;;;;8.51;100.00;101532.72;5025978;28;20056;-75
2024/03/16 09:15:08;;;;;;;3.05;1.20;;;;;;;8.75;100.00;101539.41;5042536;28;20059;-75
2024/03/16 09:17:34;;;;;;;6.05;1.20;;;;;;;8.99;100.00;101530.59;5027137;28;20128;-75
2024/03/16 09:20:07;;;;;;;8.27;1.30;;;;;;;8.98;100.00;101528.94;5023218;28;20087;-77
2024/03/16 09:22:33;;;;;;;4.55;1.40;;;;;;;8.95;100.00;101543.75;5023524;28;20045;-75
2024/03/16 09:24:58;;;;;;;5.07;1.65;;;;;;;8.89;100.00;101552.03;5024318;28;20038;-75
2024/03/16 09:27:24;;;;;;;10.93;1.35;;;;;;;8.74;100.00;101554.13;5026020;28;20039;-76
2024/03/16 09:29:49;;;;;;;9.15;1.40;;;;;;;8.73;100.00;101560.22;5023152;28;20030;-76
2024/03/16 09:32:15;;;;;;;3.97;1.40;;;;;;;8.89;100.00;101554.63;5020445;28;20535;-76
2024/03/16 09:34:40;;;;;;;5.90;1.65;;;;;;;9.01;100.00;101562.31;5024299;28;20044;-77
2024/03/16 09:37:05;;;;;;;9.30;1.88;;;;;;;9.03;100.00;101563.00;5024001;28;20048;-76
2024/03/16 09:39:31;;;;;;;8.23;1.48;;;;;;;9.16;100.00;101567.03;5026952;28;20083;-76
2024/03/16 09:41:57;;;;;;;4.55;1.70;;;;;;;9.03;100.00;101574.16;5007191;28;20088;-76
2024/03/16 09:44:23;;;;;;;4.75;1.50;;;;;;;9.00;100.00;101576.19;5025386;28;20025;-75
2024/03/16 09:46:51;;;;;;;4.30;1.00;;;;;;;8.89;100.00;101583.06;5025911;28;20524;-76
2024/03/16 09:49:16;;;;;;;6.10;1.58;;;;;;;8.96;100.00;101588.56;5020162;28;20492;-76
2024/03/16 09:51:42;;;;;;;6.38;1.70;;;;;;;9.11;100.00;101583.88;5025233;28;20037;-76
2024/03/16 09:54:09;;;;;;;10.07;1.60;;;;;;;9.79;100.00;101586.78;5021347;28;20253;-75
2024/03/16 09:56:36;;;;;;;13.50;1.63;;;;;;;10.07;93.86;101585.22;5023610;28;20447;-75
2024/03/16 09:59:19;;;;;;;6.78;1.60;;;;;;;10.20;91.01;101591.94;5018726;28;20936;-76
2024/03/16 10:01:45;;;;;;;;;;;;;;;10.11;84.25;101596.13;5024861;28;20040;-75
2024/03/16 10:04:10;;;;;;;1.17;0.65;;;;;;;10.08;85.71;101599.00;5022960;28;19917;-77
2024/03/16 10:06:37;;;;;;;7.38;1.40;;;;;;;9.88;85.95;101619.66;5006347;28;20492;-76
2024/03/16 10:09:11;;;;;;;8.35;1.50;;;;;;;9.86;88.70;101629.34;5022433;28;20041;-76
2024/03/16 10:11:39;;;;;;;3.60;0.85;;;;;;;9.68;87.47;101634.34;5057164;28;20100;-77
2024/03/16 10:14:09;;;;;;;7.47;1.48;;;;;;;9.57;87.44;101643.94;5023534;28;20149;-76
2024/03/16 10:16:35;;;;;;;6.53;0.90;;;;;;;9.52;88.54;101652.91;5007439;28;20040;-76
2024/03/16 10:19:01;;;;;;;2.90;1.08;;;;;;;9.42;86.93;101649.47;5005557;28;20041;-76
2024/03/16 10:21:29;;;;;;;2.05;0.70;;;;;;;9.34;87.84;101650.09;5024469;28;20462;-76
2024/03/16 10:23:57;;;;;;;5.55;0.93;;;;;;;9.33;89.52;101656.22;5008057;28;20091;-76
2024/03/16 10:26:23;;;;;;;3.60;1.23;;;;;;;9.43;87.88;101664.03;5044214;28;20030;-76
2024/03/16 10:28:53;;;;;;;4.15;0.93;;;;;;;9.50;88.73;101670.34;5019366;28;20044;-75
2024/03/16 10:31:22;;;;;;;5.60;1.00;;;;;;;9.68;87.46;101659.38;5013502;28;20063;-76
2024/03/16 10:33:50;;;;;;;1.73;0.52;;;;;;;9.62;86.15;101662.50;5027158;28;20049;-75
2024/03/16 10:36:17;;;;;;;2.25;0.50;;;;;;;9.49;83.06;101673.91;5041173;28;20055;-75
2024/03/16 10:38:43;;;;;;;1.70;0.57;;;;;;;9.46;82.95;101681.91;5025788;28;20029;-76
2024/03/16 10:41:10;;;;;;;4.60;0.77;;;;;;;9.66;84.94;101694.94;5028238;28;20055;-75
2024/03/16 10:43:39;;;;;;;1.67;0.40;;;;;;;9.52;81.22;101698.69;5027742;28;20452;-75
2024/03/16 10:46:09;;;;;;;2.22;0.47;;;;;;;9.44;80.38;101696.75;5023571;28;20045;-75
2024/03/16 10:48:38;;;;;;;3.88;0.95;;;;;;;9.57;80.89;101699.16;5027713;28;20045;-75
2024/03/16 10:51:09;;;;;;;2.20;0.50;;;;;;;9.44;79.19;101707.09;5027488;28;20664;-77
2024/03/16 10:53:35;;;;;;;6.45;0.60;;;;;;;9.43;79.38;101715.00;5027799;28;20052;-75
2024/03/16 10:56:03;;;;;;;3.20;0.65;;;;;;;9.26;80.12;101717.19;5023806;28;20034;-77
2024/03/16 10:58:29;;;;;;;2.30;0.90;;;;;;;9.20;79.98;101727.22;5026189;28;20029;-75
2024/03/16 11:01:01;;;;;;;5.63;1.00;;;;;;;9.27;80.90;101731.78;5022886;28;20121;-77
2024/03/16 11:03:30;;;;;;;4.53;0.73;;;;;;;9.23;80.34;101738.16;5054127;28;20501;-76
2024/03/16 11:06:01;;;;;;;1.65;0.65;;;;;;;9.27;79.35;101743.91;5035647;28;20701;-75
2024/03/16 11:08:46;;;;;;;5.43;0.80;;;;;;;9.22;78.70;101741.66;5021901;28;20211;-75
2024/03/16 11:11:23;;;;;;;3.33;0.60;;;;;;;9.30;78.88;101739.28;5027441;28;20488;-75
2024/03/16 11:13:55;;;;;;;2.53;0.80;;;;;;;9.50;79.26;101737.66;5024904;28;20042;-76
2024/03/16 11:16:27;;;;;;;2.15;0.60;;;;;;;9.61;77.20;101741.97;5042609;28;20029;-75
2024/03/16 11:19:07;;;;;;;2.20;0.63;;;;;;;9.58;76.98;101747.38;5024812;28;20572;-75